sensor_id;sensor_type;location;lat;lon;timestamp;P1;durP1;ratioP1;P2;durP2;ratioP2
72791;SDS011;60907;53.268;8.764;2022-11-27T00:01:14;16.85;;;6.53;;
72791;SDS011;60907;53.268;8.764;2022-11-27T00:03:41;16.75;;;7.18;;
72791;SDS011;60907;53.268;8.764;2022-11-27T00:06:09;16.63;;;6.57;;
72791;SDS011;60907;53.268;8.764;2022-11-27T00:08:36;21.70;;;7.20;;
72791;SDS011;60907;53.268;8.764;2022-11-27T00:11:09;19.05;;;7.28;;
72791;SDS011;60907;53.268;8.764;2022-11-27T00:13:36;17.15;;;6.72;;
72791;SDS011;60907;53.268;8.764;2022-11-27T00:16:02;22.45;;;7.57;;
72791;SDS011;60907;53.268;8.764;2022-11-27T00:18:28;20.10;;;6.85;;
72791;SDS011;60907;53.268;8.764;2022-11-27T00:20:53;24.17;;;7.07;;
72791;SDS011;60907;53.268;8.764;2022-11-27T00:23:19;16.48;;;6.97;;
72791;SDS011;60907;53.268;8.764;2022-11-27T00:25:51;18.10;;;7.40;;
72791;SDS011;60907;53.268;8.764;2022-11-27T00:28:17;22.17;;;6.38;;
72791;SDS011;60907;53.268;8.764;2022-11-27T00:30:42;23.15;;;7.05;;
72791;SDS011;60907;53.268;8.764;2022-11-27T00:33:08;15.98;;;6.00;;
72791;SDS011;60907;53.268;8.764;2022-11-27T00:35:33;23.40;;;7.43;;
72791;SDS011;60907;53.268;8.764;2022-11-27T00:37:59;18.77;;;6.53;;
72791;SDS011;60907;53.268;8.764;2022-11-27T00:40:24;18.88;;;6.97;;
72791;SDS011;60907;53.268;8.764;2022-11-27T00:42:49;20.07;;;7.50;;
72791;SDS011;60907;53.268;8.764;2022-11-27T00:45:15;16.23;;;7.28;;
72791;SDS011;60907;53.268;8.764;2022-11-27T00:47:40;16.70;;;6.70;;
72791;SDS011;60907;53.268;8.764;2022-11-27T00:50:06;15.45;;;7.03;;
72791;SDS011;60907;53.268;8.764;2022-11-27T00:52:31;23.98;;;7.10;;
72791;SDS011;60907;53.268;8.764;2022-11-27T00:54:57;21.55;;;6.78;;
72791;SDS011;60907;53.268;8.764;2022-11-27T00:57:22;15.40;;;7.33;;
72791;SDS011;60907;53.268;8.764;2022-11-27T00:59:49;15.80;;;6.97;;
72791;SDS011;60907;53.268;8.764;2022-11-27T01:02:14;12.25;;;7.03;;
72791;SDS011;60907;53.268;8.764;2022-11-27T01:04:39;20.88;;;7.20;;
72791;SDS011;60907;53.268;8.764;2022-11-27T01:07:05;15.90;;;6.75;;
72791;SDS011;60907;53.268;8.764;2022-11-27T01:09:30;17.60;;;6.50;;
72791;SDS011;60907;53.268;8.764;2022-11-27T01:11:56;15.93;;;5.95;;
72791;SDS011;60907;53.268;8.764;2022-11-27T01:14:21;15.63;;;5.85;;
72791;SDS011;60907;53.268;8.764;2022-11-27T01:16:46;11.45;;;4.93;;
72791;SDS011;60907;53.268;8.764;2022-11-27T01:19:12;14.30;;;5.37;;
72791;SDS011;60907;53.268;8.764;2022-11-27T01:21:38;14.13;;;5.82;;
72791;SDS011;60907;53.268;8.764;2022-11-27T01:24:04;17.75;;;5.88;;
72791;SDS011;60907;53.268;8.764;2022-11-27T01:26:30;12.82;;;5.60;;
72791;SDS011;60907;53.268;8.764;2022-11-27T01:28:56;13.98;;;6.18;;
72791;SDS011;60907;53.268;8.764;2022-11-27T01:31:23;15.65;;;6.00;;
72791;SDS011;60907;53.268;8.764;2022-11-27T01:33:51;15.88;;;5.97;;
72791;SDS011;60907;53.268;8.764;2022-11-27T01:36:21;14.00;;;5.32;;
72791;SDS011;60907;53.268;8.764;2022-11-27T01:38:47;15.88;;;6.07;;
72791;SDS011;60907;53.268;8.764;2022-11-27T01:41:22;14.68;;;5.05;;
72791;SDS011;60907;53.268;8.764;2022-11-27T01:44:00;17.33;;;5.68;;
72791;SDS011;60907;53.268;8.764;2022-11-27T01:52:17;11.70;;;5.85;;
72791;SDS011;60907;53.268;8.764;2022-11-27T01:54:25;17.55;;;5.10;;
72791;SDS011;60907;53.268;8.764;2022-11-27T01:56:53;13.85;;;4.35;;
72791;SDS011;60907;53.268;8.764;2022-11-27T01:59:20;13.20;;;4.65;;
72791;SDS011;60907;53.268;8.764;2022-11-27T02:01:46;14.65;;;5.05;;
72791;SDS011;60907;53.268;8.764;2022-11-27T02:04:12;16.35;;;5.65;;
72791;SDS011;60907;53.268;8.764;2022-11-27T02:06:37;8.82;;;4.60;;
72791;SDS011;60907;53.268;8.764;2022-11-27T02:09:03;17.92;;;5.88;;
72791;SDS011;60907;53.268;8.764;2022-11-27T02:16:39;13.07;;;5.03;;
72791;SDS011;60907;53.268;8.764;2022-11-27T02:19:32;16.98;;;4.97;;
72791;SDS011;60907;53.268;8.764;2022-11-27T02:25:12;9.93;;;4.43;;
72791;SDS011;60907;53.268;8.764;2022-11-27T02:30:22;8.80;;;4.43;;
72791;SDS011;60907;53.268;8.764;2022-11-27T02:32:50;13.90;;;4.55;;
72791;SDS011;60907;53.268;8.764;2022-11-27T02:35:29;19.45;;;5.38;;
72791;SDS011;60907;53.268;8.764;2022-11-27T02:37:57;12.68;;;4.65;;
72791;SDS011;60907;53.268;8.764;2022-11-27T02:40:30;15.30;;;5.32;;
72791;SDS011;60907;53.268;8.764;2022-11-27T02:43:11;15.55;;;5.03;;
72791;SDS011;60907;53.268;8.764;2022-11-27T02:45:43;13.45;;;4.78;;
72791;SDS011;60907;53.268;8.764;2022-11-27T02:48:14;12.07;;;4.70;;
72791;SDS011;60907;53.268;8.764;2022-11-27T02:50:43;10.93;;;5.65;;
72791;SDS011;60907;53.268;8.764;2022-11-27T02:53:19;11.15;;;4.97;;
72791;SDS011;60907;53.268;8.764;2022-11-27T02:55:47;12.15;;;4.82;;
72791;SDS011;60907;53.268;8.764;2022-11-27T02:58:14;16.70;;;4.65;;
72791;SDS011;60907;53.268;8.764;2022-11-27T03:00:42;20.85;;;5.22;;
72791;SDS011;60907;53.268;8.764;2022-11-27T03:03:07;11.82;;;4.53;;
72791;SDS011;60907;53.268;8.764;2022-11-27T03:05:34;15.55;;;4.97;;
72791;SDS011;60907;53.268;8.764;2022-11-27T03:08:45;16.52;;;5.10;;
72791;SDS011;60907;53.268;8.764;2022-11-27T03:10:57;13.32;;;5.03;;
72791;SDS011;60907;53.268;8.764;2022-11-27T03:13:30;16.02;;;4.97;;
72791;SDS011;60907;53.268;8.764;2022-11-27T03:18:40;14.23;;;4.95;;
72791;SDS011;60907;53.268;8.764;2022-11-27T03:23:46;10.88;;;4.25;;
72791;SDS011;60907;53.268;8.764;2022-11-27T03:26:11;13.20;;;5.30;;
72791;SDS011;60907;53.268;8.764;2022-11-27T03:28:37;15.98;;;4.63;;
72791;SDS011;60907;53.268;8.764;2022-11-27T03:31:02;10.65;;;4.72;;
72791;SDS011;60907;53.268;8.764;2022-11-27T03:33:28;15.18;;;5.90;;
72791;SDS011;60907;53.268;8.764;2022-11-27T03:35:53;19.08;;;6.22;;
72791;SDS011;60907;53.268;8.764;2022-11-27T03:38:19;15.25;;;6.35;;
72791;SDS011;60907;53.268;8.764;2022-11-27T03:40:46;13.52;;;6.97;;
72791;SDS011;60907;53.268;8.764;2022-11-27T03:43:41;14.35;;;6.25;;
72791;SDS011;60907;53.268;8.764;2022-11-27T03:46:15;13.77;;;6.40;;
72791;SDS011;60907;53.268;8.764;2022-11-27T03:48:49;16.13;;;6.38;;
72791;SDS011;60907;53.268;8.764;2022-11-27T03:51:40;16.33;;;7.07;;
72791;SDS011;60907;53.268;8.764;2022-11-27T03:54:10;15.90;;;7.13;;
72791;SDS011;60907;53.268;8.764;2022-11-27T03:56:43;22.67;;;7.95;;
72791;SDS011;60907;53.268;8.764;2022-11-27T03:59:23;16.17;;;7.45;;
72791;SDS011;60907;53.268;8.764;2022-11-27T04:01:50;18.15;;;7.85;;
72791;SDS011;60907;53.268;8.764;2022-11-27T04:04:15;22.35;;;8.27;;
72791;SDS011;60907;53.268;8.764;2022-11-27T04:06:41;16.33;;;7.20;;
72791;SDS011;60907;53.268;8.764;2022-11-27T04:09:06;15.98;;;7.88;;
72791;SDS011;60907;53.268;8.764;2022-11-27T04:11:32;17.73;;;7.40;;
72791;SDS011;60907;53.268;8.764;2022-11-27T04:13:57;16.63;;;7.57;;
72791;SDS011;60907;53.268;8.764;2022-11-27T04:16:22;16.13;;;7.05;;
72791;SDS011;60907;53.268;8.764;2022-11-27T04:18:48;14.70;;;7.28;;
72791;SDS011;60907;53.268;8.764;2022-11-27T04:21:13;17.40;;;7.00;;
72791;SDS011;60907;53.268;8.764;2022-11-27T04:23:40;17.40;;;7.50;;
72791;SDS011;60907;53.268;8.764;2022-11-27T04:26:06;14.82;;;6.10;;
72791;SDS011;60907;53.268;8.764;2022-11-27T04:28:31;13.97;;;6.23;;
72791;SDS011;60907;53.268;8.764;2022-11-27T04:30:57;16.70;;;6.53;;
72791;SDS011;60907;53.268;8.764;2022-11-27T04:33:22;16.52;;;7.93;;
72791;SDS011;60907;53.268;8.764;2022-11-27T04:35:49;15.82;;;6.82;;
72791;SDS011;60907;53.268;8.764;2022-11-27T04:38:14;18.35;;;7.65;;
72791;SDS011;60907;53.268;8.764;2022-11-27T04:40:40;20.17;;;8.30;;
72791;SDS011;60907;53.268;8.764;2022-11-27T04:43:05;23.42;;;8.48;;
72791;SDS011;60907;53.268;8.764;2022-11-27T04:45:31;23.27;;;8.20;;
72791;SDS011;60907;53.268;8.764;2022-11-27T04:47:56;18.45;;;7.57;;
72791;SDS011;60907;53.268;8.764;2022-11-27T04:50:22;20.70;;;8.65;;
72791;SDS011;60907;53.268;8.764;2022-11-27T04:52:47;19.15;;;7.70;;
72791;SDS011;60907;53.268;8.764;2022-11-27T04:55:12;20.47;;;8.57;;
72791;SDS011;60907;53.268;8.764;2022-11-27T04:57:38;19.13;;;8.27;;
72791;SDS011;60907;53.268;8.764;2022-11-27T05:00:04;18.60;;;7.90;;
72791;SDS011;60907;53.268;8.764;2022-11-27T05:02:29;23.60;;;8.63;;
72791;SDS011;60907;53.268;8.764;2022-11-27T05:04:55;18.67;;;8.23;;
72791;SDS011;60907;53.268;8.764;2022-11-27T05:07:20;20.27;;;8.50;;
72791;SDS011;60907;53.268;8.764;2022-11-27T05:09:46;23.92;;;8.82;;
72791;SDS011;60907;53.268;8.764;2022-11-27T05:12:11;18.30;;;8.18;;
72791;SDS011;60907;53.268;8.764;2022-11-27T05:14:37;23.02;;;8.80;;
72791;SDS011;60907;53.268;8.764;2022-11-27T05:17:02;22.40;;;8.68;;
72791;SDS011;60907;53.268;8.764;2022-11-27T05:19:28;18.92;;;8.88;;
72791;SDS011;60907;53.268;8.764;2022-11-27T05:21:54;22.90;;;8.30;;
72791;SDS011;60907;53.268;8.764;2022-11-27T05:24:20;18.00;;;7.03;;
72791;SDS011;60907;53.268;8.764;2022-11-27T05:26:47;19.42;;;7.53;;
72791;SDS011;60907;53.268;8.764;2022-11-27T05:29:12;19.33;;;8.85;;
72791;SDS011;60907;53.268;8.764;2022-11-27T05:31:38;17.55;;;8.43;;
72791;SDS011;60907;53.268;8.764;2022-11-27T05:34:04;20.17;;;8.73;;
72791;SDS011;60907;53.268;8.764;2022-11-27T05:36:31;21.60;;;9.15;;
72791;SDS011;60907;53.268;8.764;2022-11-27T05:38:57;21.83;;;10.38;;
72791;SDS011;60907;53.268;8.764;2022-11-27T05:41:22;18.88;;;8.52;;
72791;SDS011;60907;53.268;8.764;2022-11-27T05:43:48;24.10;;;8.95;;
72791;SDS011;60907;53.268;8.764;2022-11-27T05:46:13;22.13;;;8.90;;
72791;SDS011;60907;53.268;8.764;2022-11-27T05:48:40;22.38;;;9.13;;
72791;SDS011;60907;53.268;8.764;2022-11-27T05:51:05;22.38;;;9.13;;
72791;SDS011;60907;53.268;8.764;2022-11-27T05:53:32;17.88;;;8.52;;
72791;SDS011;60907;53.268;8.764;2022-11-27T05:56:05;20.10;;;8.45;;
72791;SDS011;60907;53.268;8.764;2022-11-27T05:58:35;17.45;;;8.38;;
72791;SDS011;60907;53.268;8.764;2022-11-27T06:01:01;16.75;;;7.53;;
72791;SDS011;60907;53.268;8.764;2022-11-27T06:03:27;19.63;;;8.32;;
72791;SDS011;60907;53.268;8.764;2022-11-27T06:05:52;15.82;;;7.68;;
72791;SDS011;60907;53.268;8.764;2022-11-27T06:08:18;18.75;;;8.35;;
72791;SDS011;60907;53.268;8.764;2022-11-27T06:10:44;20.50;;;9.25;;
72791;SDS011;60907;53.268;8.764;2022-11-27T06:13:11;17.02;;;7.80;;
72791;SDS011;60907;53.268;8.764;2022-11-27T06:15:37;18.60;;;7.50;;
72791;SDS011;60907;53.268;8.764;2022-11-27T06:18:03;22.17;;;8.13;;
72791;SDS011;60907;53.268;8.764;2022-11-27T06:20:29;17.40;;;8.10;;
72791;SDS011;60907;53.268;8.764;2022-11-27T06:22:54;22.13;;;8.30;;
72791;SDS011;60907;53.268;8.764;2022-11-27T06:25:20;21.25;;;8.45;;
72791;SDS011;60907;53.268;8.764;2022-11-27T06:27:45;19.90;;;7.75;;
72791;SDS011;60907;53.268;8.764;2022-11-27T06:30:11;19.97;;;8.33;;
72791;SDS011;60907;53.268;8.764;2022-11-27T06:32:37;20.45;;;7.75;;
72791;SDS011;60907;53.268;8.764;2022-11-27T06:35:02;21.43;;;7.93;;
72791;SDS011;60907;53.268;8.764;2022-11-27T06:37:28;18.75;;;8.45;;
72791;SDS011;60907;53.268;8.764;2022-11-27T06:39:54;21.20;;;8.32;;
72791;SDS011;60907;53.268;8.764;2022-11-27T06:42:20;20.20;;;8.50;;
72791;SDS011;60907;53.268;8.764;2022-11-27T06:44:45;15.80;;;6.43;;
72791;SDS011;60907;53.268;8.764;2022-11-27T06:47:11;20.20;;;8.02;;
72791;SDS011;60907;53.268;8.764;2022-11-27T06:49:36;18.85;;;7.65;;
72791;SDS011;60907;53.268;8.764;2022-11-27T06:52:02;19.88;;;7.65;;
72791;SDS011;60907;53.268;8.764;2022-11-27T06:54:27;16.92;;;6.78;;
72791;SDS011;60907;53.268;8.764;2022-11-27T06:56:52;17.47;;;7.27;;
72791;SDS011;60907;53.268;8.764;2022-11-27T06:59:18;21.40;;;8.47;;
72791;SDS011;60907;53.268;8.764;2022-11-27T07:01:43;20.83;;;8.93;;
72791;SDS011;60907;53.268;8.764;2022-11-27T07:04:09;23.02;;;8.27;;
72791;SDS011;60907;53.268;8.764;2022-11-27T07:06:35;15.95;;;7.25;;
72791;SDS011;60907;53.268;8.764;2022-11-27T07:09:00;24.30;;;8.30;;
72791;SDS011;60907;53.268;8.764;2022-11-27T07:11:27;20.17;;;8.48;;
72791;SDS011;60907;53.268;8.764;2022-11-27T07:16:20;22.48;;;9.00;;
72791;SDS011;60907;53.268;8.764;2022-11-27T07:18:46;17.40;;;7.70;;
72791;SDS011;60907;53.268;8.764;2022-11-27T07:21:16;17.92;;;7.95;;
72791;SDS011;60907;53.268;8.764;2022-11-27T07:23:42;20.15;;;8.10;;
72791;SDS011;60907;53.268;8.764;2022-11-27T07:26:09;15.82;;;7.57;;
72791;SDS011;60907;53.268;8.764;2022-11-27T07:28:36;23.00;;;8.32;;
72791;SDS011;60907;53.268;8.764;2022-11-27T07:31:02;21.65;;;8.52;;
72791;SDS011;60907;53.268;8.764;2022-11-27T07:33:28;24.33;;;8.57;;
72791;SDS011;60907;53.268;8.764;2022-11-27T07:36:00;20.52;;;8.32;;
72791;SDS011;60907;53.268;8.764;2022-11-27T07:38:30;16.55;;;7.78;;
72791;SDS011;60907;53.268;8.764;2022-11-27T07:40:58;19.38;;;8.93;;
72791;SDS011;60907;53.268;8.764;2022-11-27T07:43:25;19.05;;;8.13;;
72791;SDS011;60907;53.268;8.764;2022-11-27T07:45:50;17.73;;;7.70;;
72791;SDS011;60907;53.268;8.764;2022-11-27T07:48:15;17.70;;;7.07;;
72791;SDS011;60907;53.268;8.764;2022-11-27T07:50:41;15.20;;;6.43;;
72791;SDS011;60907;53.268;8.764;2022-11-27T07:53:06;15.70;;;7.22;;
72791;SDS011;60907;53.268;8.764;2022-11-27T07:55:32;16.02;;;7.60;;
72791;SDS011;60907;53.268;8.764;2022-11-27T07:57:57;16.37;;;7.00;;
72791;SDS011;60907;53.268;8.764;2022-11-27T08:00:22;17.07;;;7.67;;
72791;SDS011;60907;53.268;8.764;2022-11-27T08:02:48;20.45;;;7.93;;
72791;SDS011;60907;53.268;8.764;2022-11-27T08:05:13;21.42;;;8.27;;
72791;SDS011;60907;53.268;8.764;2022-11-27T08:07:39;16.07;;;7.50;;
72791;SDS011;60907;53.268;8.764;2022-11-27T08:10:05;15.60;;;7.75;;
72791;SDS011;60907;53.268;8.764;2022-11-27T08:12:30;18.10;;;8.05;;
72791;SDS011;60907;53.268;8.764;2022-11-27T08:14:56;20.30;;;9.02;;
72791;SDS011;60907;53.268;8.764;2022-11-27T08:17:21;17.52;;;8.10;;
72791;SDS011;60907;53.268;8.764;2022-11-27T08:19:47;17.77;;;8.80;;
72791;SDS011;60907;53.268;8.764;2022-11-27T08:22:13;19.80;;;8.00;;
72791;SDS011;60907;53.268;8.764;2022-11-27T08:24:40;20.25;;;7.32;;
72791;SDS011;60907;53.268;8.764;2022-11-27T08:27:07;18.58;;;8.13;;
72791;SDS011;60907;53.268;8.764;2022-11-27T08:29:33;17.83;;;7.93;;
72791;SDS011;60907;53.268;8.764;2022-11-27T08:31:59;20.55;;;8.50;;
72791;SDS011;60907;53.268;8.764;2022-11-27T08:34:24;21.30;;;9.52;;
72791;SDS011;60907;53.268;8.764;2022-11-27T08:36:51;18.95;;;7.93;;
72791;SDS011;60907;53.268;8.764;2022-11-27T08:39:16;20.38;;;8.30;;
72791;SDS011;60907;53.268;8.764;2022-11-27T08:41:42;22.42;;;8.73;;
72791;SDS011;60907;53.268;8.764;2022-11-27T08:44:07;17.73;;;8.13;;
72791;SDS011;60907;53.268;8.764;2022-11-27T08:46:32;19.63;;;7.45;;
72791;SDS011;60907;53.268;8.764;2022-11-27T08:48:58;18.27;;;8.23;;
72791;SDS011;60907;53.268;8.764;2022-11-27T08:51:24;17.02;;;7.43;;
72791;SDS011;60907;53.268;8.764;2022-11-27T08:53:49;18.53;;;8.07;;
72791;SDS011;60907;53.268;8.764;2022-11-27T08:56:16;18.58;;;7.82;;
72791;SDS011;60907;53.268;8.764;2022-11-27T08:58:43;19.95;;;7.93;;
72791;SDS011;60907;53.268;8.764;2022-11-27T09:01:18;21.15;;;8.70;;
72791;SDS011;60907;53.268;8.764;2022-11-27T09:03:45;19.60;;;8.45;;
72791;SDS011;60907;53.268;8.764;2022-11-27T09:06:12;20.52;;;9.40;;
72791;SDS011;60907;53.268;8.764;2022-11-27T09:08:40;22.98;;;9.63;;
72791;SDS011;60907;53.268;8.764;2022-11-27T09:11:06;20.50;;;8.35;;
72791;SDS011;60907;53.268;8.764;2022-11-27T09:13:32;21.13;;;8.07;;
72791;SDS011;60907;53.268;8.764;2022-11-27T09:16:00;20.95;;;9.00;;
72791;SDS011;60907;53.268;8.764;2022-11-27T09:18:27;20.70;;;8.98;;
72791;SDS011;60907;53.268;8.764;2022-11-27T09:20:56;17.92;;;7.45;;
72791;SDS011;60907;53.268;8.764;2022-11-27T09:23:25;18.35;;;8.65;;
72791;SDS011;60907;53.268;8.764;2022-11-27T09:25:51;13.77;;;7.45;;
72791;SDS011;60907;53.268;8.764;2022-11-27T09:28:17;17.98;;;7.38;;
72791;SDS011;60907;53.268;8.764;2022-11-27T09:30:42;22.27;;;7.60;;
72791;SDS011;60907;53.268;8.764;2022-11-27T09:33:07;14.75;;;6.93;;
72791;SDS011;60907;53.268;8.764;2022-11-27T09:35:35;20.70;;;8.80;;
72791;SDS011;60907;53.268;8.764;2022-11-27T09:38:01;19.40;;;7.65;;
72791;SDS011;60907;53.268;8.764;2022-11-27T09:40:27;15.98;;;7.20;;
72791;SDS011;60907;53.268;8.764;2022-11-27T09:42:53;21.20;;;9.02;;
72791;SDS011;60907;53.268;8.764;2022-11-27T09:45:21;19.95;;;7.60;;
72791;SDS011;60907;53.268;8.764;2022-11-27T09:47:52;19.48;;;8.15;;
72791;SDS011;60907;53.268;8.764;2022-11-27T09:50:25;18.13;;;7.97;;
72791;SDS011;60907;53.268;8.764;2022-11-27T09:55:38;17.95;;;7.63;;
72791;SDS011;60907;53.268;8.764;2022-11-27T10:00:48;16.67;;;7.97;;
72791;SDS011;60907;53.268;8.764;2022-11-27T10:03:15;15.43;;;7.00;;
72791;SDS011;60907;53.268;8.764;2022-11-27T10:05:57;16.58;;;7.90;;
72791;SDS011;60907;53.268;8.764;2022-11-27T10:08:30;18.70;;;9.00;;
72791;SDS011;60907;53.268;8.764;2022-11-27T10:14:02;16.63;;;8.18;;
72791;SDS011;60907;53.268;8.764;2022-11-27T10:16:36;16.80;;;7.93;;
72791;SDS011;60907;53.268;8.764;2022-11-27T10:19:07;18.67;;;7.10;;
72791;SDS011;60907;53.268;8.764;2022-11-27T10:21:43;16.35;;;7.38;;
72791;SDS011;60907;53.268;8.764;2022-11-27T10:26:55;12.98;;;6.30;;
72791;SDS011;60907;53.268;8.764;2022-11-27T10:29:35;16.00;;;6.47;;
72791;SDS011;60907;53.268;8.764;2022-11-27T10:32:07;17.73;;;7.78;;
72791;SDS011;60907;53.268;8.764;2022-11-27T10:37:27;16.95;;;7.15;;
72791;SDS011;60907;53.268;8.764;2022-11-27T10:39:59;17.27;;;6.72;;
72791;SDS011;60907;53.268;8.764;2022-11-27T10:45:03;21.20;;;7.00;;
72791;SDS011;60907;53.268;8.764;2022-11-27T10:47:31;15.32;;;7.40;;
72791;SDS011;60907;53.268;8.764;2022-11-27T10:49:56;15.93;;;6.95;;
72791;SDS011;60907;53.268;8.764;2022-11-27T10:52:22;19.92;;;7.22;;
72791;SDS011;60907;53.268;8.764;2022-11-27T10:54:55;17.60;;;6.72;;
72791;SDS011;60907;53.268;8.764;2022-11-27T10:57:26;16.40;;;6.43;;
72791;SDS011;60907;53.268;8.764;2022-11-27T11:04:56;15.98;;;7.57;;
72791;SDS011;60907;53.268;8.764;2022-11-27T11:07:25;16.45;;;7.13;;
72791;SDS011;60907;53.268;8.764;2022-11-27T11:09:52;17.80;;;7.53;;
72791;SDS011;60907;53.268;8.764;2022-11-27T11:12:19;19.40;;;7.40;;
72791;SDS011;60907;53.268;8.764;2022-11-27T11:14:50;13.95;;;6.70;;
72791;SDS011;60907;53.268;8.764;2022-11-27T11:17:16;16.30;;;6.68;;
72791;SDS011;60907;53.268;8.764;2022-11-27T11:19:42;14.80;;;6.25;;
72791;SDS011;60907;53.268;8.764;2022-11-27T11:22:11;17.10;;;6.68;;
72791;SDS011;60907;53.268;8.764;2022-11-27T11:24:38;15.00;;;6.85;;
72791;SDS011;60907;53.268;8.764;2022-11-27T11:27:11;18.13;;;7.40;;
72791;SDS011;60907;53.268;8.764;2022-11-27T11:34:49;15.52;;;7.40;;
72791;SDS011;60907;53.268;8.764;2022-11-27T11:39:46;12.93;;;5.70;;
72791;SDS011;60907;53.268;8.764;2022-11-27T11:42:20;14.32;;;7.13;;
72791;SDS011;60907;53.268;8.764;2022-11-27T11:44:52;17.05;;;7.40;;
72791;SDS011;60907;53.268;8.764;2022-11-27T11:47:20;14.52;;;6.05;;
72791;SDS011;60907;53.268;8.764;2022-11-27T11:49:48;16.60;;;7.20;;
72791;SDS011;60907;53.268;8.764;2022-11-27T11:54:57;13.95;;;6.15;;
72791;SDS011;60907;53.268;8.764;2022-11-27T12:01:14;16.67;;;6.53;;
72791;SDS011;60907;53.268;8.764;2022-11-27T12:04:06;16.15;;;6.95;;
72791;SDS011;60907;53.268;8.764;2022-11-27T12:10:02;15.95;;;6.90;;
72791;SDS011;60907;53.268;8.764;2022-11-27T12:23:27;15.15;;;7.28;;
72791;SDS011;60907;53.268;8.764;2022-11-27T12:37:10;16.57;;;7.27;;
72791;SDS011;60907;53.268;8.764;2022-11-27T12:40:12;12.80;;;6.10;;
72791;SDS011;60907;53.268;8.764;2022-11-27T12:43:04;13.25;;;7.22;;
72791;SDS011;60907;53.268;8.764;2022-11-27T12:48:20;17.60;;;6.60;;
72791;SDS011;60907;53.268;8.764;2022-11-27T12:50:49;16.75;;;7.43;;
72791;SDS011;60907;53.268;8.764;2022-11-27T12:53:18;12.98;;;6.82;;
72791;SDS011;60907;53.268;8.764;2022-11-27T12:55:51;12.77;;;6.97;;
72791;SDS011;60907;53.268;8.764;2022-11-27T12:58:27;15.35;;;6.88;;
72791;SDS011;60907;53.268;8.764;2022-11-27T13:01:01;16.08;;;7.15;;
72791;SDS011;60907;53.268;8.764;2022-11-27T13:03:33;14.13;;;7.13;;
72791;SDS011;60907;53.268;8.764;2022-11-27T13:06:18;16.17;;;7.93;;
72791;SDS011;60907;53.268;8.764;2022-11-27T13:11:19;15.98;;;7.20;;
72791;SDS011;60907;53.268;8.764;2022-11-27T13:13:51;15.70;;;7.60;;
72791;SDS011;60907;53.268;8.764;2022-11-27T13:16:26;13.98;;;6.65;;
72791;SDS011;60907;53.268;8.764;2022-11-27T13:21:29;20.92;;;7.25;;
72791;SDS011;60907;53.268;8.764;2022-11-27T13:23:58;15.60;;;7.03;;
72791;SDS011;60907;53.268;8.764;2022-11-27T13:26:27;14.27;;;6.57;;
72791;SDS011;60907;53.268;8.764;2022-11-27T13:29:15;14.25;;;6.93;;
72791;SDS011;60907;53.268;8.764;2022-11-27T13:31:44;19.30;;;6.93;;
72791;SDS011;60907;53.268;8.764;2022-11-27T13:34:17;14.02;;;6.80;;
72791;SDS011;60907;53.268;8.764;2022-11-27T13:36:45;13.45;;;6.82;;
72791;SDS011;60907;53.268;8.764;2022-11-27T13:39:21;13.25;;;6.70;;
72791;SDS011;60907;53.268;8.764;2022-11-27T13:41:57;15.00;;;8.20;;
72791;SDS011;60907;53.268;8.764;2022-11-27T13:44:25;21.38;;;9.65;;
72791;SDS011;60907;53.268;8.764;2022-11-27T13:46:53;19.23;;;8.02;;
72791;SDS011;60907;53.268;8.764;2022-11-27T13:49:31;16.02;;;8.45;;
72791;SDS011;60907;53.268;8.764;2022-11-27T13:52:11;14.70;;;7.30;;
72791;SDS011;60907;53.268;8.764;2022-11-27T13:54:38;13.50;;;7.70;;
72791;SDS011;60907;53.268;8.764;2022-11-27T13:57:15;15.75;;;7.40;;
72791;SDS011;60907;53.268;8.764;2022-11-27T13:59:53;15.93;;;7.72;;
72791;SDS011;60907;53.268;8.764;2022-11-27T14:02:22;11.63;;;6.50;;
72791;SDS011;60907;53.268;8.764;2022-11-27T14:04:49;13.68;;;6.28;;
72791;SDS011;60907;53.268;8.764;2022-11-27T14:07:16;14.10;;;6.65;;
72791;SDS011;60907;53.268;8.764;2022-11-27T14:09:50;15.25;;;6.70;;
72791;SDS011;60907;53.268;8.764;2022-11-27T14:12:24;21.25;;;9.25;;
72791;SDS011;60907;53.268;8.764;2022-11-27T14:14:55;28.60;;;11.48;;
72791;SDS011;60907;53.268;8.764;2022-11-27T14:17:34;17.10;;;7.97;;
72791;SDS011;60907;53.268;8.764;2022-11-27T14:25:22;18.73;;;8.52;;
72791;SDS011;60907;53.268;8.764;2022-11-27T14:27:58;17.35;;;8.25;;
72791;SDS011;60907;53.268;8.764;2022-11-27T14:33:17;14.13;;;6.32;;
72791;SDS011;60907;53.268;8.764;2022-11-27T14:36:04;15.18;;;6.65;;
72791;SDS011;60907;53.268;8.764;2022-11-27T14:38:32;15.60;;;6.57;;
72791;SDS011;60907;53.268;8.764;2022-11-27T14:41:08;11.93;;;6.38;;
72791;SDS011;60907;53.268;8.764;2022-11-27T14:43:35;11.30;;;6.35;;
72791;SDS011;60907;53.268;8.764;2022-11-27T14:46:00;12.60;;;6.57;;
72791;SDS011;60907;53.268;8.764;2022-11-27T14:48:31;13.13;;;7.25;;
72791;SDS011;60907;53.268;8.764;2022-11-27T14:51:05;16.23;;;7.25;;
72791;SDS011;60907;53.268;8.764;2022-11-27T14:53:34;14.63;;;7.18;;
72791;SDS011;60907;53.268;8.764;2022-11-27T14:55:59;15.98;;;7.43;;
72791;SDS011;60907;53.268;8.764;2022-11-27T14:58:25;16.60;;;7.60;;
72791;SDS011;60907;53.268;8.764;2022-11-27T15:03:25;19.48;;;9.05;;
72791;SDS011;60907;53.268;8.764;2022-11-27T15:05:53;14.48;;;7.07;;
72791;SDS011;60907;53.268;8.764;2022-11-27T15:08:20;15.43;;;7.68;;
72791;SDS011;60907;53.268;8.764;2022-11-27T15:10:47;16.02;;;7.25;;
72791;SDS011;60907;53.268;8.764;2022-11-27T15:13:29;15.48;;;7.78;;
72791;SDS011;60907;53.268;8.764;2022-11-27T15:18:24;21.52;;;8.50;;
72791;SDS011;60907;53.268;8.764;2022-11-27T15:20:51;15.90;;;7.07;;
72791;SDS011;60907;53.268;8.764;2022-11-27T15:23:19;12.18;;;7.13;;
72791;SDS011;60907;53.268;8.764;2022-11-27T15:25:50;17.92;;;8.68;;
72791;SDS011;60907;53.268;8.764;2022-11-27T15:28:26;15.82;;;7.53;;
72791;SDS011;60907;53.268;8.764;2022-11-27T15:31:20;15.93;;;7.40;;
72791;SDS011;60907;53.268;8.764;2022-11-27T15:33:56;13.60;;;6.85;;
72791;SDS011;60907;53.268;8.764;2022-11-27T15:36:38;14.45;;;7.28;;
72791;SDS011;60907;53.268;8.764;2022-11-27T15:42:03;14.65;;;6.78;;
72791;SDS011;60907;53.268;8.764;2022-11-27T15:44:32;14.60;;;7.32;;
72791;SDS011;60907;53.268;8.764;2022-11-27T15:46:58;15.65;;;6.60;;
72791;SDS011;60907;53.268;8.764;2022-11-27T15:49:25;14.45;;;7.10;;
72791;SDS011;60907;53.268;8.764;2022-11-27T15:51:50;13.25;;;6.35;;
72791;SDS011;60907;53.268;8.764;2022-11-27T15:54:16;14.75;;;6.03;;
72791;SDS011;60907;53.268;8.764;2022-11-27T15:56:41;13.30;;;6.60;;
72791;SDS011;60907;53.268;8.764;2022-11-27T15:59:07;15.15;;;6.90;;
72791;SDS011;60907;53.268;8.764;2022-11-27T16:04:09;16.88;;;7.18;;
72791;SDS011;60907;53.268;8.764;2022-11-27T16:06:35;18.23;;;7.15;;
72791;SDS011;60907;53.268;8.764;2022-11-27T16:09:02;16.58;;;7.07;;
72791;SDS011;60907;53.268;8.764;2022-11-27T16:11:28;14.68;;;7.05;;
72791;SDS011;60907;53.268;8.764;2022-11-27T16:13:54;16.02;;;7.65;;
72791;SDS011;60907;53.268;8.764;2022-11-27T16:16:20;14.65;;;7.80;;
72791;SDS011;60907;53.268;8.764;2022-11-27T16:18:45;14.77;;;6.47;;
72791;SDS011;60907;53.268;8.764;2022-11-27T16:21:11;15.00;;;7.82;;
72791;SDS011;60907;53.268;8.764;2022-11-27T16:23:38;15.38;;;6.63;;
72791;SDS011;60907;53.268;8.764;2022-11-27T16:26:05;14.13;;;7.40;;
72791;SDS011;60907;53.268;8.764;2022-11-27T16:28:31;17.45;;;7.50;;
72791;SDS011;60907;53.268;8.764;2022-11-27T16:30:58;15.95;;;7.85;;
72791;SDS011;60907;53.268;8.764;2022-11-27T16:33:28;18.88;;;7.57;;